TFFR Airport Information

Runway Information
Runway 12 Length 11499 ft width 148 ft
Elevation 5 ft Threshold 1312 ft Heading 101
Runway 30 Length 11499 ft Width 148 ft
Elevation 32 ft Threshold 820 ft Heading 281
Airport Frequencies
Type APP Name RAIZET APP Frequency 121.3 MHZ
Type ATIS Name ATIS Frequency 127.6 MHZ
Type GND Name GND Frequency 121.85 MHZ
Type TWR Name RAIZET TWR Frequency 118.4 MHZ
Airport Navaids
Type VOR-DME Name Pointe A Pitre Frequency 112900 KHZ
Type NDB Name Pointe A Pitre Frequency 385 KHZ
Airport Weather Information & NOTAM
ADDS - METARS form results

(2255 UTC 30 November 2020)
Data provider http://aviationweather.gov/metar/data/
 
METAR text: TFFR 302230Z AUTO 05006KT 9999 FEW037 OVC062 24/23 Q1013 TEMPO 2000 SHRA SCT012CB BKN015TCU
Conditions at: TFFR (LE RAIZET , GP) observed 2230 UTC 30 November 2020
Temperature: 24.0°C (75°F)
Dewpoint: 23.0°C (73°F) [RH = 94%]
Pressure (altimeter): 29.91 inches Hg (1013.0 mb)
Winds: from the NE (50 degrees) at 7 MPH (6 knots; 3.1 m/s)
Visibility: 6 or more miles (10+ km)
Ceiling: 6200 feet AGL
Clouds: few clouds at 3700 feet AGL
overcast cloud deck at 6200 feet AGL
Weather: no significant weather observed at this time

METAR text: TFFR 302200Z AUTO 07006KT 9999 SCT032 BKN040 OVC062 24/23 Q1013 TEMPO 2000 SHRA SCT012CB BKN015TCU
Conditions at: TFFR (LE RAIZET , GP) observed 2200 UTC 30 November 2020
Temperature: 24.0°C (75°F)
Dewpoint: 23.0°C (73°F) [RH = 94%]
Pressure (altimeter): 29.91 inches Hg (1013.0 mb)
Winds: from the ENE (70 degrees) at 7 MPH (6 knots; 3.1 m/s)
Visibility: 6 or more miles (10+ km)
Ceiling: 4000 feet AGL
Clouds: scattered clouds at 3200 feet AGL
broken clouds at 4000 feet AGL
overcast cloud deck at 6200 feet AGL
Weather: no significant weather observed at this time

Forecast for: TFFR (LE RAIZET , GP)
Text: TAF TFFR 301700Z 3018/0118 09010KT 9999 SCT020 BKN030
Forecast period: 1800 UTC 30 November 2020 to 1800 UTC 01 December 2020
Forecast type: FROM: standard forecast or significant change
Winds: from the E (90 degrees) at 12 MPH (10 knots; 5.1 m/s)
Visibility: 6 or more miles (10+ km)
Ceiling: 3000 feet AGL
Clouds: scattered clouds at 2000 feet AGL
broken clouds at 3000 feet AGL
Weather: no significant weather forecast for this period
Text: PROB40
Forecast period: 1800 UTC 30 November 2020 to 0400 UTC 01 December 2020
Forecast type: TEMPORARY: The following changes expected for less than half the time period
Visibility: 1.24 miles (2.00 km)
Ceiling: 1500 feet AGL
Clouds: scattered clouds at 1200 feet AGL
broken clouds at 1500 feet AGL
Weather: SHRA  (rain showers)
Text: TEMPO 3018/0104 2000 SHRA SCT012CB BKN015TCU
Forecast period: 0200 to 1200 UTC 01 December 2020
Forecast type: TEMPORARY: The following changes expected for less than half the time period
Winds: variable direction winds at 2 MPH (2 knots; 1.0 m/s)
Visibility: missing
Ceiling: unknown
Clouds: missing
Weather: no significant weather forecast for this period